Time;durP1;ratioP1;P1;durP2;ratioP2;P2;SDS_P1;SDS_P2;PMS_P1;PMS_P2;Temp;Humidity;BMP_temperature;BMP_pressure;BME280_temperature;BME280_humidity;BME280_pressure;Samples;Min_cycle;Max_cycle;Signal;HPM_P1;HPM_P2
2022/08/05 00:02:14;;;;;;;;;31.00;30.50;;;;;;;;5172396;28;8804;-86
2022/08/05 00:05:04;;;;;;;;;33.20;32.00;;;;;;;;5189007;28;8874;-85
2022/08/05 00:07:35;;;;;;;;;30.25;29.50;;;;;;;;5188455;28;8891;-85
2022/08/05 00:10:07;;;;;;;;;33.20;32.00;;;;;;;;5185628;28;8840;-83
2022/08/05 00:12:38;;;;;;;;;35.00;32.60;;;;;;;;5172422;28;8796;-85
2022/08/05 00:15:10;;;;;;;;;37.80;34.80;;;;;;;;5187685;28;8813;-82
2022/08/05 00:17:41;;;;;;;;;28.60;28.60;;;;;;;;5204860;28;8780;-81
2022/08/05 00:20:13;;;;;;;;;32.40;31.20;;;;;;;;5188209;28;8793;-79
2022/08/05 00:22:44;;;;;;;;;41.40;36.20;;;;;;;;5188039;28;8781;-80
2022/08/05 00:25:16;;;;;;;;;41.80;37.00;;;;;;;;5187842;28;8785;-81
2022/08/05 00:27:47;;;;;;;;;41.60;36.80;;;;;;;;5187419;28;8945;-79
2022/08/05 00:30:37;;;;;;;;;30.00;29.20;;;;;;;;5211936;28;8808;-76
2022/08/05 00:33:08;;;;;;;;;34.80;32.60;;;;;;;;5213985;28;8787;-77
2022/08/05 00:35:39;;;;;;;;;38.00;35.00;;;;;;;;5190852;28;8935;-78
2022/08/05 00:38:10;;;;;;;;;30.80;30.00;;;;;;;;5188969;28;8796;-81
2022/08/05 00:40:49;;;;;;;;;38.00;35.00;;;;;;;;5171763;28;8805;-82
2022/08/05 00:43:21;;;;;;;;;36.40;34.00;;;;;;;;5200667;28;8808;-81
2022/08/05 00:45:52;;;;;;;;;31.40;30.20;;;;;;;;5171447;28;8816;-80
2022/08/05 00:48:24;;;;;;;;;35.80;33.00;;;;;;;;5204229;28;8931;-82
2022/08/05 00:50:55;;;;;;;;;33.40;31.60;;;;;;;;5170700;28;9522;-82
2022/08/05 00:53:26;;;;;;;;;28.40;28.40;;;;;;;;5187661;28;8858;-81
2022/08/05 00:55:57;;;;;;;;;35.80;32.80;;;;;;;;5182214;28;8791;-81
2022/08/05 00:58:28;;;;;;;;;38.80;35.20;;;;;;;;5171066;28;8817;-81
2022/08/05 01:01:00;;;;;;;;;35.80;33.40;;;;;;;;5187398;28;9546;-81
2022/08/05 01:03:31;;;;;;;;;33.60;31.80;;;;;;;;5187416;28;8785;-80
2022/08/05 01:06:02;;;;;;;;;40.40;35.40;;;;;;;;5184897;28;8871;-81
2022/08/05 01:08:34;;;;;;;;;38.20;35.00;;;;;;;;5203032;28;8793;-80
2022/08/05 01:11:10;;;;;;;;;36.20;33.40;;;;;;;;5167321;28;8922;-80
2022/08/05 01:13:46;;;;;;;;;39.20;35.20;;;;;;;;5167464;28;8822;-83
2022/08/05 01:16:23;;;;;;;;;40.20;36.00;;;;;;;;5167519;28;8807;-83
2022/08/05 01:18:58;;;;;;;;;36.60;33.60;;;;;;;;5183601;28;8807;-83
2022/08/05 01:21:47;;;;;;;;;33.80;31.60;;;;;;;;5185093;28;8786;-86
2022/08/05 01:24:33;;;;;;;;;32.20;30.80;;;;;;;;5168395;28;8821;-89
2022/08/05 01:27:23;;;;;;;;;34.20;32.40;;;;;;;;5181290;28;8873;-91
2022/08/05 01:29:57;;;;;;;;;37.40;34.40;;;;;;;;5204411;28;9511;-88
2022/08/05 01:32:30;;;;;;;;;45.60;39.40;;;;;;;;5158549;28;9584;-88
2022/08/05 01:35:05;;;;;;;;;29.80;29.60;;;;;;;;5183531;28;8778;-86
2022/08/05 01:37:57;;;;;;;;;33.60;32.00;;;;;;;;5169750;28;8799;-86
2022/08/05 01:40:29;;;;;;;;;36.20;33.60;;;;;;;;5151269;28;8814;-83
2022/08/05 01:43:01;;;;;;;;;42.80;37.20;;;;;;;;5151236;28;9645;-85
2022/08/05 01:45:33;;;;;;;;;47.40;40.40;;;;;;;;5167064;28;8783;-85
2022/08/05 01:48:06;;;;;;;;;46.80;40.00;;;;;;;;5166591;28;8794;-85
2022/08/05 01:50:38;;;;;;;;;43.60;37.80;;;;;;;;5183180;28;8834;-86
2022/08/05 01:53:11;;;;;;;;;48.40;41.40;;;;;;;;5185188;28;9549;-86
2022/08/05 01:55:44;;;;;;;;;52.20;44.00;;;;;;;;5203660;28;8796;-89
2022/08/05 01:58:16;;;;;;;;;45.40;39.40;;;;;;;;5203599;28;8807;-87
2022/08/05 02:00:49;;;;;;;;;43.60;37.80;;;;;;;;5203868;28;8895;-89
2022/08/05 02:03:24;;;;;;;;;49.00;41.00;;;;;;;;5187357;28;8876;-88
2022/08/05 02:06:15;;;;;;;;;47.60;41.00;;;;;;;;5203063;28;8855;-81
2022/08/05 02:08:47;;;;;;;;;41.20;36.40;;;;;;;;5187276;28;8824;-80
2022/08/05 02:11:19;;;;;;;;;35.80;33.00;;;;;;;;5183342;28;8857;-82
2022/08/05 02:14:12;;;;;;;;;35.00;32.80;;;;;;;;5169552;28;8826;-77
2022/08/05 02:16:49;;;;;;;;;35.80;32.20;;;;;;;;5183206;28;8865;-80
2022/08/05 02:19:31;;;;;;;;;29.25;29.00;;;;;;;;5166921;28;9676;-80
2022/08/05 02:22:14;;;;;;;;;33.00;31.80;;;;;;;;5167198;28;8784;-82
2022/08/05 02:24:49;;;;;;;;;33.20;31.80;;;;;;;;5162073;28;8804;-82
2022/08/05 02:27:22;;;;;;;;;31.00;30.00;;;;;;;;5187093;28;8819;-80
2022/08/05 02:29:55;;;;;;;;;38.80;34.80;;;;;;;;5186657;28;8820;-81
2022/08/05 02:32:27;;;;;;;;;48.80;41.40;;;;;;;;5173566;28;8913;-81
2022/08/05 02:35:04;;;;;;;;;47.00;40.60;;;;;;;;5150692;28;8831;-86
2022/08/05 02:37:35;;;;;;;;;44.20;38.20;;;;;;;;5167008;28;8794;-86
2022/08/05 02:40:08;;;;;;;;;45.20;38.80;;;;;;;;5174841;28;8817;-86
2022/08/05 02:42:40;;;;;;;;;46.60;39.80;;;;;;;;5178647;28;8810;-88
2022/08/05 02:45:32;;;;;;;;;49.20;42.20;;;;;;;;5176338;28;8783;-84
2022/08/05 02:48:04;;;;;;;;;50.20;42.60;;;;;;;;5169424;28;8861;-84
2022/08/05 02:50:36;;;;;;;;;54.80;45.20;;;;;;;;5214341;28;8888;-86
2022/08/05 02:53:07;;;;;;;;;52.40;44.40;;;;;;;;5197463;28;8786;-85
2022/08/05 02:55:39;;;;;;;;;59.20;48.80;;;;;;;;5197644;28;8914;-84
2022/08/05 02:58:12;;;;;;;;;55.40;46.40;;;;;;;;5173199;28;8814;-87
2022/08/05 03:00:44;;;;;;;;;59.80;49.00;;;;;;;;5154550;28;8787;-87
2022/08/05 03:03:17;;;;;;;;;48.60;41.60;;;;;;;;5170332;28;8794;-86
2022/08/05 03:05:49;;;;;;;;;44.00;38.00;;;;;;;;5186187;28;9577;-86
2022/08/05 03:08:40;;;;;;;;;47.40;40.60;;;;;;;;5193087;28;8796;-87
2022/08/05 03:11:20;;;;;;;;;50.80;43.00;;;;;;;;5174377;28;8921;-89
2022/08/05 03:13:52;;;;;;;;;46.80;40.00;;;;;;;;5186937;28;8810;-89
2022/08/05 03:16:23;;;;;;;;;44.80;38.80;;;;;;;;5186498;28;8794;-88
2022/08/05 03:18:54;;;;;;;;;41.00;36.00;;;;;;;;5186042;28;8874;-84
2022/08/05 03:21:26;;;;;;;;;45.40;39.20;;;;;;;;5200573;28;9515;-88
2022/08/05 03:23:57;;;;;;;;;44.00;38.00;;;;;;;;5186442;28;8807;-83
2022/08/05 03:26:29;;;;;;;;;39.40;34.20;;;;;;;;5169923;28;8914;-83
2022/08/05 03:29:00;;;;;;;;;43.80;37.80;;;;;;;;5169701;28;8810;-83
2022/08/05 03:31:32;;;;;;;;;43.00;37.40;;;;;;;;5187609;28;8816;-85
2022/08/05 03:34:03;;;;;;;;;38.20;34.00;;;;;;;;5188700;28;8808;-87
2022/08/05 03:36:34;;;;;;;;;45.00;39.00;;;;;;;;5191869;28;9521;-81
2022/08/05 03:39:06;;;;;;;;;44.20;38.00;;;;;;;;5206395;28;8841;-85
2022/08/05 03:41:37;;;;;;;;;42.60;37.00;;;;;;;;5189910;28;9533;-86
2022/08/05 03:44:09;;;;;;;;;44.00;38.00;;;;;;;;5173153;28;8808;-88
2022/08/05 03:46:40;;;;;;;;;51.80;43.80;;;;;;;;5206158;28;8854;-88
2022/08/05 03:49:12;;;;;;;;;48.40;41.40;;;;;;;;5207177;28;8832;-87
2022/08/05 03:51:43;;;;;;;;;52.60;44.60;;;;;;;;5172845;28;8800;-88
2022/08/05 03:54:48;;;;;;;;;58.60;48.60;;;;;;;;5183322;28;8795;-79
2022/08/05 03:57:23;;;;;;;;;56.40;47.00;;;;;;;;5185730;28;8795;-82
2022/08/05 03:59:55;;;;;;;;;56.20;47.00;;;;;;;;5169055;28;8795;-79
2022/08/05 04:02:28;;;;;;;;;55.00;46.00;;;;;;;;5201336;28;8787;-85
2022/08/05 04:05:00;;;;;;;;;54.00;45.00;;;;;;;;5175451;28;8795;-80
2022/08/05 04:07:33;;;;;;;;;60.20;50.00;;;;;;;;5188925;28;8807;-80
2022/08/05 04:10:04;;;;;;;;;61.20;51.00;;;;;;;;5175629;28;8840;-81
2022/08/05 04:12:36;;;;;;;;;65.20;54.60;;;;;;;;5189483;28;8874;-79
2022/08/05 04:15:07;;;;;;;;;79.40;71.80;;;;;;;;5188963;28;8816;-79
2022/08/05 04:18:00;;;;;;;;;75.40;69.80;;;;;;;;5205455;28;9541;-78
2022/08/05 04:20:31;;;;;;;;;60.20;49.20;;;;;;;;5187269;28;8917;-81
2022/08/05 04:23:02;;;;;;;;;63.80;52.00;;;;;;;;5169508;28;8786;-83
2022/08/05 04:25:33;;;;;;;;;64.60;53.00;;;;;;;;5190675;28;8841;-85
2022/08/05 04:28:05;;;;;;;;;67.20;57.00;;;;;;;;5159988;28;8791;-85
2022/08/05 04:30:36;;;;;;;;;62.80;51.60;;;;;;;;5182172;28;9565;-68
2022/08/05 04:33:28;;;;;;;;;49.00;42.00;;;;;;;;5192600;28;8800;-75
2022/08/05 04:35:59;;;;;;;;;52.00;44.00;;;;;;;;5187872;28;8817;-81
2022/08/05 04:38:31;;;;;;;;;38.40;34.40;;;;;;;;5206465;28;8788;-81
2022/08/05 04:41:21;;;;;;;;;38.60;34.40;;;;;;;;5206878;28;8792;-82
2022/08/05 04:43:52;;;;;;;;;35.40;32.80;;;;;;;;5172129;28;8789;-85
2022/08/05 04:46:41;;;;;;;;;27.50;27.50;;;;;;;;5183827;28;8909;-81
2022/08/05 04:49:14;;;;;;;;;27.25;27.25;;;;;;;;5168559;28;9582;-87
2022/08/05 04:51:45;;;;;;;;;33.50;31.50;;;;;;;;5203044;28;8808;-84
2022/08/05 04:54:17;;;;;;;;;29.75;29.25;;;;;;;;5203195;28;8793;-83
2022/08/05 04:57:07;;;;;;;;;32.75;31.00;;;;;;;;5188926;28;8796;-81
2022/08/05 04:59:38;;;;;;;;;27.00;27.00;;;;;;;;5186230;28;8922;-87
2022/08/05 05:02:09;;;;;;;;;33.00;31.00;;;;;;;;5202713;28;8825;-81
2022/08/05 05:04:40;;;;;;;;;31.00;30.00;;;;;;;;5202947;28;8788;-84
2022/08/05 05:07:11;;;;;;;;;27.25;27.25;;;;;;;;5186299;28;8885;-80
2022/08/05 05:09:43;;;;;;;;;30.00;29.25;;;;;;;;5179142;28;8834;-82
2022/08/05 05:12:14;;;;;;;;;30.50;29.50;;;;;;;;5166069;28;8811;-80
2022/08/05 05:14:46;;;;;;;;;38.20;33.20;;;;;;;;5165950;28;8834;-82
2022/08/05 05:17:17;;;;;;;;;30.25;29.25;;;;;;;;5183450;28;8814;-84
2022/08/05 05:19:48;;;;;;;;;27.50;27.50;;;;;;;;5181918;28;8893;-82
2022/08/05 05:22:19;;;;;;;;;30.75;29.75;;;;;;;;5176287;28;8879;-82
2022/08/05 05:24:51;;;;;;;;;28.00;28.00;;;;;;;;5203339;28;8842;-88
2022/08/05 05:27:23;;;;;;;;;24.75;24.75;;;;;;;;5187630;28;8807;-82
2022/08/05 05:29:54;;;;;;;;;35.25;32.75;;;;;;;;5164286;28;8850;-86
2022/08/05 05:32:25;;;;;;;;;27.00;27.00;;;;;;;;5168217;28;8825;-86
2022/08/05 05:34:56;;;;;;;;;23.50;23.50;;;;;;;;5166101;28;8795;-87
2022/08/05 05:37:49;;;;;;;;;27.75;27.50;;;;;;;;5183338;28;8815;-82
2022/08/05 05:40:40;;;;;;;;;22.25;22.25;;;;;;;;5182007;28;8834;-84
2022/08/05 05:43:11;;;;;;;;;28.00;28.00;;;;;;;;5181984;28;8791;-84
2022/08/05 05:45:42;;;;;;;;;30.00;29.50;;;;;;;;5198777;28;9554;-85
2022/08/05 05:48:13;;;;;;;;;28.50;28.50;;;;;;;;5204886;28;8788;-86
2022/08/05 05:50:45;;;;;;;;;28.25;28.00;;;;;;;;5170069;28;8867;-84
2022/08/05 05:53:16;;;;;;;;;22.50;22.50;;;;;;;;5165647;28;8929;-86
2022/08/05 05:55:47;;;;;;;;;30.00;28.00;;;;;;;;5165349;28;8799;-85
2022/08/05 05:58:18;;;;;;;;;26.50;26.50;;;;;;;;5165411;28;8818;-86
2022/08/05 06:00:50;;;;;;;;;26.75;26.75;;;;;;;;5166481;28;8853;-84
2022/08/05 06:03:21;;;;;;;;;24.00;24.00;;;;;;;;5185871;28;9551;-84
2022/08/05 06:05:52;;;;;;;;;27.00;26.00;;;;;;;;5201948;28;8822;-84
2022/08/05 06:08:23;;;;;;;;;20.50;20.50;;;;;;;;5185707;28;8927;-86
2022/08/05 06:10:55;;;;;;;;;24.50;24.50;;;;;;;;5166674;28;8839;-85
2022/08/05 06:13:26;;;;;;;;;19.50;19.50;;;;;;;;5207738;28;9724;-83
2022/08/05 06:16:16;;;;;;;;;23.25;23.25;;;;;;;;5208981;28;9587;-82
2022/08/05 06:18:47;;;;;;;;;24.00;24.00;;;;;;;;5195035;28;8803;-87
2022/08/05 06:21:19;;;;;;;;;21.75;21.75;;;;;;;;5211998;28;8771;-86
2022/08/05 06:23:50;;;;;;;;;19.75;19.75;;;;;;;;5195225;28;8779;-87
2022/08/05 06:26:21;;;;;;;;;22.25;22.25;;;;;;;;5195228;28;8795;-80
2022/08/05 06:28:52;;;;;;;;;21.25;21.00;;;;;;;;5185417;28;8836;-82
2022/08/05 06:31:24;;;;;;;;;19.25;19.25;;;;;;;;5179223;28;8813;-81
2022/08/05 06:33:55;;;;;;;;;19.75;19.75;;;;;;;;5214506;28;8815;-82
2022/08/05 06:36:26;;;;;;;;;19.00;19.00;;;;;;;;5223119;28;8773;-82
2022/08/05 06:38:57;;;;;;;;;17.75;17.75;;;;;;;;5198697;28;8793;-82
2022/08/05 06:41:48;;;;;;;;;21.00;21.00;;;;;;;;5181650;28;8900;-83
2022/08/05 06:44:19;;;;;;;;;17.75;17.75;;;;;;;;5195270;28;8819;-83
2022/08/05 06:46:50;;;;;;;;;22.00;22.00;;;;;;;;5178026;28;8785;-83
2022/08/05 06:49:22;;;;;;;;;19.25;19.25;;;;;;;;5203964;28;8827;-82
2022/08/05 06:51:57;;;;;;;;;18.50;18.50;;;;;;;;5220218;28;8803;-83
2022/08/05 06:54:28;;;;;;;;;19.75;19.75;;;;;;;;5211571;28;8759;-77
2022/08/05 06:56:59;;;;;;;;;20.25;20.25;;;;;;;;5228625;28;8791;-75
2022/08/05 06:59:31;;;;;;;;;22.00;22.00;;;;;;;;5175289;28;8840;-77
2022/08/05 07:02:02;;;;;;;;;59.60;49.20;;;;;;;;5157864;28;8808;-77
2022/08/05 07:04:52;;;;;;;;;20.50;20.50;;;;;;;;5176784;28;8911;-76
2022/08/05 07:07:23;;;;;;;;;20.00;20.00;;;;;;;;5174073;28;8822;-77
2022/08/05 07:10:13;;;;;;;;;31.75;30.25;;;;;;;;5180009;28;8797;-78
2022/08/05 07:18:24;;;;;;;;;20.75;20.75;;;;;;;;5204993;28;8808;-78
2022/08/05 07:20:56;;;;;;;;;21.25;21.25;;;;;;;;5165371;28;8807;-77
2022/08/05 07:23:27;;;;;;;;;19.25;19.25;;;;;;;;5165413;28;8837;-77
2022/08/05 07:25:59;;;;;;;;;17.25;17.25;;;;;;;;5162440;28;8811;-76
2022/08/05 07:28:51;;;;;;;;;25.00;25.00;;;;;;;;5198029;28;9581;-77
2022/08/05 07:31:23;;;;;;;;;19.00;19.00;;;;;;;;5189853;28;8803;-75
2022/08/05 07:33:54;;;;;;;;;23.75;23.75;;;;;;;;5185994;28;9514;-77
2022/08/05 07:36:26;;;;;;;;;23.50;23.50;;;;;;;;5190943;28;8922;-76
2022/08/05 07:38:57;;;;;;;;;25.25;25.25;;;;;;;;5176011;28;8791;-76
2022/08/05 07:41:47;;;;;;;;;21.25;21.00;;;;;;;;5204003;28;8807;-78
2022/08/05 07:44:19;;;;;;;;;27.00;27.00;;;;;;;;5175950;28;8853;-77
2022/08/05 07:47:09;;;;;;;;;26.75;26.75;;;;;;;;5173971;28;8811;-77
2022/08/05 07:49:41;;;;;;;;;24.00;24.00;;;;;;;;5169128;28;8831;-78
2022/08/05 07:52:12;;;;;;;;;22.75;22.75;;;;;;;;5185483;28;8802;-78
2022/08/05 07:54:43;;;;;;;;;22.00;22.00;;;;;;;;5184947;28;8946;-78
2022/08/05 07:57:14;;;;;;;;;23.25;23.25;;;;;;;;5168921;28;8925;-77
2022/08/05 07:59:46;;;;;;;;;21.50;21.50;;;;;;;;5184184;28;8885;-77
2022/08/05 08:02:17;;;;;;;;;23.25;23.25;;;;;;;;5184838;28;8818;-79
2022/08/05 08:04:48;;;;;;;;;22.00;22.00;;;;;;;;5167962;28;8811;-78
2022/08/05 08:07:19;;;;;;;;;23.00;23.00;;;;;;;;5165089;28;8799;-77
2022/08/05 08:09:51;;;;;;;;;21.75;21.75;;;;;;;;5150363;28;10224;-78
2022/08/05 08:12:22;;;;;;;;;21.75;21.75;;;;;;;;5148049;28;8852;-78
2022/08/05 08:14:53;;;;;;;;;22.00;22.00;;;;;;;;5145671;28;8811;-79
2022/08/05 08:17:24;;;;;;;;;24.00;24.00;;;;;;;;5166366;28;8819;-80
2022/08/05 08:19:55;;;;;;;;;23.25;23.25;;;;;;;;5165806;28;8812;-79
2022/08/05 08:22:26;;;;;;;;;24.25;24.25;;;;;;;;5220267;28;8794;-80
2022/08/05 08:24:58;;;;;;;;;23.00;23.00;;;;;;;;5207814;28;8798;-80
2022/08/05 08:27:29;;;;;;;;;24.75;24.75;;;;;;;;5175668;28;8828;-79
2022/08/05 08:30:19;;;;;;;;;24.25;24.25;;;;;;;;5180357;28;8816;-78
2022/08/05 08:32:50;;;;;;;;;27.75;27.50;;;;;;;;5172927;28;8839;-78
2022/08/05 08:35:39;;;;;;;;;27.00;27.00;;;;;;;;5193236;28;8817;-78
2022/08/05 08:38:11;;;;;;;;;20.25;20.25;;;;;;;;5170391;28;8851;-77
2022/08/05 08:40:43;;;;;;;;;19.00;19.00;;;;;;;;5203510;28;9523;-77
2022/08/05 08:43:15;;;;;;;;;21.00;21.00;;;;;;;;5200450;28;8824;-78
2022/08/05 08:45:48;;;;;;;;;17.50;17.50;;;;;;;;5203162;28;8784;-77
2022/08/05 08:48:20;;;;;;;;;23.00;23.00;;;;;;;;5197538;28;8863;-77
2022/08/05 08:50:51;;;;;;;;;21.00;21.00;;;;;;;;5186654;28;8856;-74
2022/08/05 08:53:40;;;;;;;;;25.75;25.75;;;;;;;;5202656;28;8808;-74
2022/08/05 08:56:11;;;;;;;;;22.00;22.00;;;;;;;;5185467;28;8853;-74
2022/08/05 08:58:42;;;;;;;;;22.50;22.50;;;;;;;;5201144;28;8832;-75
2022/08/05 09:01:32;;;;;;;;;50.60;42.60;;;;;;;;5186475;28;8816;-75
2022/08/05 09:04:03;;;;;;;;;20.67;20.33;;;;;;;;5181632;28;8830;-75
2022/08/05 09:06:34;;;;;;;;;18.00;18.00;;;;;;;;5169287;28;9135;-75
2022/08/05 09:09:05;;;;;;;;;19.25;19.25;;;;;;;;5188595;28;8851;-77
2022/08/05 09:11:36;;;;;;;;;21.25;21.25;;;;;;;;5215581;28;8840;-77
2022/08/05 09:14:07;;;;;;;;;15.50;15.25;;;;;;;;5213919;28;8889;-76
2022/08/05 09:16:39;;;;;;;;;19.50;19.50;;;;;;;;5205071;28;8781;-75
2022/08/05 09:19:10;;;;;;;;;22.25;22.25;;;;;;;;5189022;28;8809;-73
2022/08/05 09:21:41;;;;;;;;;22.75;22.75;;;;;;;;5204191;28;8797;-73
2022/08/05 09:24:12;;;;;;;;;21.75;21.75;;;;;;;;5187686;28;8953;-73
2022/08/05 09:26:52;;;;;;;;;21.75;21.75;;;;;;;;5180563;28;8799;-73
2022/08/05 09:29:46;;;;;;;;;24.75;24.75;;;;;;;;5158145;28;8838;-75
2022/08/05 09:32:18;;;;;;;;;36.00;33.00;;;;;;;;5178037;28;8802;-74
2022/08/05 09:35:12;;;;;;;;;76.20;71.80;;;;;;;;5183587;28;8865;-74
2022/08/05 09:37:50;;;;;;;;;31.75;29.75;;;;;;;;5190443;28;8916;-77
2022/08/05 09:40:28;;;;;;;;;26.00;26.00;;;;;;;;5175567;28;8811;-79
2022/08/05 09:43:00;;;;;;;;;113.75;113.25;;;;;;;;5176685;28;8816;-76
2022/08/05 09:45:38;;;;;;;;;64.60;54.20;;;;;;;;5223757;28;9563;-77
2022/08/05 09:48:28;;;;;;;;;49.00;42.00;;;;;;;;5223995;28;8782;-76
2022/08/05 09:51:03;;;;;;;;;62.80;51.80;;;;;;;;5207294;28;8834;-76
2022/08/05 09:53:48;;;;;;;;;26.00;26.00;;;;;;;;5183177;28;8861;-78
2022/08/05 09:56:29;;;;;;;;;50.00;42.00;;;;;;;;5170448;28;8809;-74
2022/08/05 09:59:00;;;;;;;;;33.25;30.50;;;;;;;;5198092;28;9546;-74
2022/08/05 10:01:35;;;;;;;;;18.50;18.50;;;;;;;;5178919;28;8818;-75
2022/08/05 10:04:12;;;;;;;;;27.00;27.00;;;;;;;;5176305;28;8819;-76
2022/08/05 10:06:54;;;;;;;;;25.00;25.00;;;;;;;;5171764;28;8837;-80
2022/08/05 10:09:25;;;;;;;;;33.75;31.00;;;;;;;;5193612;28;8845;-77
2022/08/05 10:12:08;;;;;;;;;28.00;27.75;;;;;;;;5176086;28;8881;-77
2022/08/05 10:14:39;;;;;;;;;23.75;23.75;;;;;;;;5183644;28;8898;-76
2022/08/05 10:17:12;;;;;;;;;21.50;21.50;;;;;;;;5186309;28;8821;-76
2022/08/05 10:19:43;;;;;;;;;21.00;21.00;;;;;;;;5186293;28;8805;-77
2022/08/05 10:22:34;;;;;;;;;22.50;22.50;;;;;;;;5199218;28;8807;-75
2022/08/05 10:25:05;;;;;;;;;21.50;21.50;;;;;;;;5212168;28;8816;-76
2022/08/05 10:27:38;;;;;;;;;19.25;19.25;;;;;;;;5191326;28;8912;-79
2022/08/05 10:30:09;;;;;;;;;18.00;18.00;;;;;;;;5192299;28;9525;-79
2022/08/05 10:32:41;;;;;;;;;16.50;16.50;;;;;;;;5165131;28;8894;-78
2022/08/05 10:35:13;;;;;;;;;21.00;21.00;;;;;;;;5182509;28;8791;-84
2022/08/05 10:37:45;;;;;;;;;26.50;26.00;;;;;;;;5209595;28;8812;-88
2022/08/05 10:40:42;;;;;;;;;25.00;24.75;;;;;;;;5179916;28;8807;-87
2022/08/05 10:43:32;;;;;;;;;24.50;24.25;;;;;;;;5187640;28;8807;-83
2022/08/05 10:46:05;;;;;;;;;22.50;22.50;;;;;;;;5182112;28;8978;-85
2022/08/05 10:48:37;;;;;;;;;23.50;23.50;;;;;;;;5191700;28;8789;-79
2022/08/05 10:51:40;;;;;;;;;27.25;26.75;;;;;;;;5205239;28;8898;-78
2022/08/05 10:54:12;;;;;;;;;18.75;18.75;;;;;;;;5204418;28;8911;-78
2022/08/05 10:56:45;;;;;;;;;19.75;19.75;;;;;;;;5201577;28;8805;-75
2022/08/05 10:59:26;;;;;;;;;18.00;18.00;;;;;;;;5187795;28;8846;-74
2022/08/05 11:02:11;;;;;;;;;19.75;19.75;;;;;;;;5206387;28;8793;-74
2022/08/05 11:04:45;;;;;;;;;20.50;20.50;;;;;;;;5190623;28;8811;-75
2022/08/05 11:07:54;;;;;;;;;17.50;17.50;;;;;;;;5207795;28;8788;-74
2022/08/05 11:10:26;;;;;;;;;16.75;16.75;;;;;;;;5206967;28;9547;-75
2022/08/05 11:13:35;;;;;;;;;17.00;17.00;;;;;;;;5208274;28;8772;-74
2022/08/05 11:16:22;;;;;;;;;14.50;14.50;;;;;;;;5194130;28;8811;-75
2022/08/05 11:19:12;;;;;;;;;20.00;20.00;;;;;;;;5210124;28;8820;-76
2022/08/05 11:21:43;;;;;;;;;15.75;15.75;;;;;;;;5210618;28;8771;-74
2022/08/05 11:24:14;;;;;;;;;14.00;14.00;;;;;;;;5210257;28;8794;-74
2022/08/05 11:26:45;;;;;;;;;15.75;15.75;;;;;;;;5193335;28;8838;-75
2022/08/05 11:29:35;;;;;;;;;12.50;12.50;;;;;;;;5227797;28;8873;-75
2022/08/05 11:32:24;;;;;;;;;17.00;17.00;;;;;;;;5210602;28;9591;-76
2022/08/05 11:35:40;;;;;;;;;16.00;16.00;;;;;;;;5210181;28;8814;-76
2022/08/05 11:38:11;;;;;;;;;16.25;16.25;;;;;;;;5163790;28;8853;-74
2022/08/05 11:40:59;;;;;;;;;15.00;15.00;;;;;;;;5177953;28;8783;-77
2022/08/05 11:43:31;;;;;;;;;15.75;15.75;;;;;;;;5195845;28;12196;-75
2022/08/05 11:46:25;;;;;;;;;14.50;14.50;;;;;;;;5211272;28;8806;-77
2022/08/05 11:48:57;;;;;;;;;14.75;14.75;;;;;;;;5177319;28;8775;-76
2022/08/05 11:51:47;;;;;;;;;15.50;15.50;;;;;;;;5209875;28;9084;-77
2022/08/05 11:54:26;;;;;;;;;14.00;14.00;;;;;;;;5209610;28;8799;-76
2022/08/05 11:56:57;;;;;;;;;14.00;14.00;;;;;;;;5193453;28;8783;-77
2022/08/05 11:59:29;;;;;;;;;20.00;20.00;;;;;;;;5209773;28;8786;-75
2022/08/05 12:02:01;;;;;;;;;16.75;16.75;;;;;;;;5210237;28;9087;-78
2022/08/05 12:04:40;;;;;;;;;15.50;15.25;;;;;;;;5193284;28;8803;-78
2022/08/05 12:07:12;;;;;;;;;15.75;15.75;;;;;;;;5177066;28;8863;-78
2022/08/05 12:09:46;;;;;;;;;14.00;14.00;;;;;;;;5193119;28;8811;-78
2022/08/05 12:12:22;;;;;;;;;11.75;11.75;;;;;;;;5192138;28;8795;-79
2022/08/05 12:14:53;;;;;;;;;16.00;16.00;;;;;;;;5192378;28;8834;-81
2022/08/05 12:17:26;;;;;;;;;14.00;14.00;;;;;;;;5208726;28;9630;-80
2022/08/05 12:19:57;;;;;;;;;13.50;13.50;;;;;;;;5191652;28;8801;-78
2022/08/05 12:22:28;;;;;;;;;20.75;20.75;;;;;;;;5192905;28;8821;-89
2022/08/05 12:24:59;;;;;;;;;12.50;12.50;;;;;;;;5192331;28;9636;-86
2022/08/05 12:27:31;;;;;;;;;41.20;35.60;;;;;;;;5192233;28;8817;-82
2022/08/05 12:30:06;;;;;;;;;35.50;32.50;;;;;;;;5192847;28;8869;-86
2022/08/05 12:32:45;;;;;;;;;22.25;22.25;;;;;;;;5231543;28;8792;-82
2022/08/05 12:35:17;;;;;;;;;15.25;15.25;;;;;;;;5177072;28;8903;-82
2022/08/05 12:37:48;;;;;;;;;14.50;14.50;;;;;;;;5175661;28;8830;-81
2022/08/05 12:40:23;;;;;;;;;17.00;17.00;;;;;;;;5194149;28;8773;-82
2022/08/05 12:42:55;;;;;;;;;13.50;13.50;;;;;;;;5192836;28;8795;-83
2022/08/05 12:45:26;;;;;;;;;16.25;16.25;;;;;;;;5227070;28;8765;-82
2022/08/05 12:47:56;;;;;;;;;16.00;16.00;;;;;;;;5226707;28;9499;-82
2022/08/05 12:50:27;;;;;;;;;14.67;14.67;;;;;;;;5192284;28;10873;-80
2022/08/05 12:52:58;;;;;;;;;13.00;13.00;;;;;;;;5176629;28;8753;-80
2022/08/05 12:55:30;;;;;;;;;13.75;13.75;;;;;;;;5226896;28;11398;-81
2022/08/05 12:58:01;;;;;;;;;13.75;13.75;;;;;;;;5192649;28;8800;-84
2022/08/05 13:00:33;;;;;;;;;12.00;12.00;;;;;;;;5193949;28;8780;-84
2022/08/05 13:03:06;;;;;;;;;15.25;15.25;;;;;;;;5176155;28;9007;-82
2022/08/05 13:05:37;;;;;;;;;14.25;14.25;;;;;;;;5176015;28;8777;-83
2022/08/05 13:08:08;;;;;;;;;43.33;37.67;;;;;;;;5190816;28;8788;-80
2022/08/05 13:10:42;;;;;;;;;21.75;21.75;;;;;;;;5167524;28;11337;-78
2022/08/05 13:13:18;;;;;;;;;33.00;30.00;;;;;;;;5191552;28;8790;-75
2022/08/05 13:15:50;;;;;;;;;19.75;19.75;;;;;;;;5209004;28;9566;-74
2022/08/05 13:18:21;;;;;;;;;15.75;15.75;;;;;;;;5192427;28;8930;-76
2022/08/05 13:20:52;;;;;;;;;16.33;15.67;;;;;;;;5208789;28;8855;-77
2022/08/05 13:23:23;;;;;;;;;16.00;16.00;;;;;;;;5189959;28;12168;-75
2022/08/05 13:25:53;;;;;;;;;14.33;14.33;;;;;;;;5171626;28;9627;-76
2022/08/05 13:28:24;;;;;;;;;19.00;19.00;;;;;;;;5156069;28;8800;-77
2022/08/05 13:30:57;;;;;;;;;17.50;17.50;;;;;;;;5156404;28;8843;-77
2022/08/05 13:33:41;;;;;;;;;17.33;17.33;;;;;;;;5185076;28;8791;-76
2022/08/05 13:36:17;;;;;;;;;19.50;19.50;;;;;;;;5209398;28;11472;-78
2022/08/05 13:38:48;;;;;;;;;23.00;22.75;;;;;;;;5175605;28;8879;-75
2022/08/05 13:41:19;;;;;;;;;30.75;29.25;;;;;;;;5175426;28;8787;-77
2022/08/05 13:43:50;;;;;;;;;38.75;34.25;;;;;;;;5207376;28;8828;-77
2022/08/05 13:46:22;;;;;;;;;19.25;19.25;;;;;;;;5225933;28;8814;-75
2022/08/05 13:48:54;;;;;;;;;18.25;18.25;;;;;;;;5175963;28;8846;-77
2022/08/05 13:51:27;;;;;;;;;16.00;16.00;;;;;;;;5179347;28;8801;-80
2022/08/05 13:54:04;;;;;;;;;20.50;20.50;;;;;;;;5211080;28;8789;-76
2022/08/05 13:56:36;;;;;;;;;18.50;17.50;;;;;;;;5221472;28;8872;-76
2022/08/05 13:59:07;;;;;;;;;25.00;25.00;;;;;;;;5191334;28;8791;-77
2022/08/05 14:01:38;;;;;;;;;15.00;15.00;;;;;;;;5207715;28;8791;-76
2022/08/05 14:07:00;;;;;;;;;146.50;131.00;;;;;;;;5180101;28;8842;-77
2022/08/05 14:09:32;;;;;;;;;34.25;31.50;;;;;;;;5193456;28;8941;-77
2022/08/05 14:12:04;;;;;;;;;17.00;17.00;;;;;;;;5209070;28;8798;-77
2022/08/05 14:14:35;;;;;;;;;16.25;16.25;;;;;;;;5185287;28;9508;-75
2022/08/05 14:17:06;;;;;;;;;11.50;11.50;;;;;;;;5155109;28;8789;-75
2022/08/05 14:19:37;;;;;;;;;15.25;15.25;;;;;;;;5170965;28;8819;-79
2022/08/05 14:22:08;;;;;;;;;21.25;21.25;;;;;;;;5179004;28;8805;-78
2022/08/05 14:24:39;;;;;;;;;15.25;15.25;;;;;;;;5161940;28;8815;-76
2022/08/05 14:27:29;;;;;;;;;20.50;20.50;;;;;;;;5210069;28;8799;-79
2022/08/05 14:30:18;;;;;;;;;11.75;11.75;;;;;;;;5212415;28;8852;-77
2022/08/05 14:32:49;;;;;;;;;13.75;13.75;;;;;;;;5186660;28;8796;-77
2022/08/05 14:35:20;;;;;;;;;22.75;22.75;;;;;;;;5206301;28;8781;-78
2022/08/05 14:38:10;;;;;;;;;15.25;15.25;;;;;;;;5207699;28;8793;-80
2022/08/05 14:40:41;;;;;;;;;21.00;21.00;;;;;;;;5208314;28;8807;-78
2022/08/05 14:43:11;;;;;;;;;14.33;14.33;;;;;;;;5209561;28;8826;-78
2022/08/05 14:45:42;;;;;;;;;19.67;19.67;;;;;;;;5194814;28;9719;-79
2022/08/05 14:48:13;;;;;;;;;11.00;11.00;;;;;;;;5195331;28;11162;-79
2022/08/05 14:51:02;;;;;;;;;12.75;12.75;;;;;;;;5233355;28;10938;-79
2022/08/05 14:53:33;;;;;;;;;16.00;16.00;;;;;;;;5207538;28;8780;-81
2022/08/05 14:56:04;;;;;;;;;17.50;17.50;;;;;;;;5207048;28;9012;-78
2022/08/05 14:58:36;;;;;;;;;19.50;19.50;;;;;;;;5194552;28;8801;-77
2022/08/05 15:01:25;;;;;;;;;16.00;16.00;;;;;;;;5228392;28;8876;-80
2022/08/05 15:03:56;;;;;;;;;43.40;37.40;;;;;;;;5173663;28;8797;-79
2022/08/05 15:06:28;;;;;;;;;14.75;14.75;;;;;;;;5192197;28;8816;-78
2022/08/05 15:09:02;;;;;;;;;34.75;31.50;;;;;;;;5161710;28;8801;-76
2022/08/05 15:11:36;;;;;;;;;45.20;39.20;;;;;;;;5190621;28;8795;-78
2022/08/05 15:14:07;;;;;;;;;16.25;16.25;;;;;;;;5196930;28;8806;-77
2022/08/05 15:16:38;;;;;;;;;28.50;28.00;;;;;;;;5175144;28;8789;-83
2022/08/05 15:19:09;;;;;;;;;22.00;22.00;;;;;;;;5193304;28;8815;-80
2022/08/05 15:21:40;;;;;;;;;18.75;18.75;;;;;;;;5192028;28;11684;-76
2022/08/05 15:24:11;;;;;;;;;18.75;18.75;;;;;;;;5202733;28;8822;-77